»·PEaware :: WAT169 KSNA-KLAS

WAT169 :: KSNA-KLAS

FLIGHT INFORMATION

Flight Status: Arrived
Operator: Unknown
More flights by this operator :: More flights under this callsign
Pilot: Marty P. (27464)
Aircraft: BOEING 737-800
(B738)
More flights by this aircraft type
Origin: KSNA John Wayne-Orange Co
United States
Destination: KLAS McCarran Intl
United States
More flights between these airports :: More routes between these airports
Route: +FINZZ2 MISEN KEPEC6
File this flight plan on PilotEdge
Remarks:
Altitude:
(Current/Filed)
27,000ft
Speed:
(Current/Filed)
480kts
Departed: 30-Jul-20 08:46 PM
Arrived: 30-Jul-20 09:32 PM
Distance/Time
Traveled:
197nm/0:46
Distance/Time
To Go:
Arrived

Flight Plot

Page will automatically refresh every two minutes.


Map Options




Map Legend


Flown Route
Filed Route
Departure Airport
Arrival Airport
Navaid (VOR, NDB)
Fix

Horizontal Profiles

Position Reports

Time Latitude Longitude Heading Altitude Ground
Speed
30-Jul-20 20:25 33.675005 -117.865072 118 66ft 0kts
30-Jul-20 20:26 33.675005 -117.865072 118 66ft 0kts
30-Jul-20 20:27 33.675005 -117.865072 118 66ft 0kts
30-Jul-20 20:28 33.675005 -117.865072 118 66ft 0kts
30-Jul-20 20:29 33.675005 -117.865072 118 66ft 0kts
30-Jul-20 20:30 33.675005 -117.865072 118 66ft 0kts
30-Jul-20 20:31 33.675005 -117.865072 118 66ft 0kts
30-Jul-20 20:32 33.675005 -117.865072 118 66ft 0kts
30-Jul-20 20:33 33.675005 -117.865072 118 66ft 0kts
30-Jul-20 20:34 33.675005 -117.865072 118 66ft 0kts
30-Jul-20 20:35 33.675005 -117.865072 118 66ft 0kts
30-Jul-20 20:36 33.675005 -117.865073 118 66ft 0kts
30-Jul-20 20:37 33.675109 -117.865307 118 66ft 0kts
30-Jul-20 20:38 33.675000 -117.865915 32 66ft 1kts
30-Jul-20 20:39 33.674921 -117.865965 26 66ft 0kts
30-Jul-20 20:40 33.674921 -117.865965 26 66ft 0kts
30-Jul-20 20:41 33.675257 -117.865746 27 66ft 7kts
30-Jul-20 20:42 33.678367 -117.863772 27 66ft 14kts
30-Jul-20 20:43 33.680640 -117.863077 300 66ft 0kts
30-Jul-20 20:44 33.680919 -117.863666 298 66ft 11kts
30-Jul-20 20:45 33.675653 -117.868870 209 66ft 117kts
30-Jul-20 20:46 33.630744 -117.891247 191 1858ft 209kts
30-Jul-20 20:47 33.564804 -117.910434 212 4837ft 253kts
30-Jul-20 20:48 33.513216 -117.967895 240 5258ft 265kts
30-Jul-20 20:49 33.514895 -118.047876 305 8009ft 263kts
30-Jul-20 20:50 33.571280 -118.103501 336 9782ft 272kts
30-Jul-20 20:51 33.649829 -118.095642 25 11670ft 335kts
30-Jul-20 20:52 33.738583 -118.042984 25 14147ft 363kts
30-Jul-20 20:53 33.830788 -117.989096 25 16860ft 374kts
30-Jul-20 20:54 33.924291 -117.928365 36 18618ft 405kts
30-Jul-20 20:55 34.016408 -117.844357 37 20952ft 422kts
30-Jul-20 20:56 34.104140 -117.747823 48 23095ft 437kts
30-Jul-20 20:57 34.184451 -117.634671 50 25041ft 450kts
30-Jul-20 20:58 34.263690 -117.518446 49 27013ft 457kts
30-Jul-20 20:59 34.348185 -117.392647 50 27045ft 504kts
30-Jul-20 21:00 34.435437 -117.261982 50 27054ft 500kts
30-Jul-20 21:01 34.523274 -117.130126 50 27054ft 502kts
30-Jul-20 21:02 34.612233 -116.999171 49 27032ft 504kts
30-Jul-20 21:03 34.702408 -116.867768 49 26968ft 510kts
30-Jul-20 21:04 34.792867 -116.735480 49 26959ft 504kts
30-Jul-20 21:06 34.882829 -116.619383 39 26965ft 464kts
30-Jul-20 21:07 34.983890 -116.519541 37 26910ft 463kts
30-Jul-20 21:08 35.082403 -116.423661 39 24220ft 451kts
30-Jul-20 21:09 35.168919 -116.320127 45 24001ft 449kts
30-Jul-20 21:10 35.254634 -116.213214 45 22687ft 439kts
30-Jul-20 21:11 35.335488 -116.111790 46 20326ft 422kts
30-Jul-20 21:12 35.410813 -116.016836 46 18536ft 415kts
30-Jul-20 21:13 35.490146 -115.916419 46 17327ft 410kts
30-Jul-20 21:14 35.568369 -115.817216 46 14765ft 398kts
30-Jul-20 21:15 35.639630 -115.726524 47 13505ft 329kts
30-Jul-20 21:16 35.701710 -115.646813 46 13022ft 326kts
30-Jul-20 21:17 35.773782 -115.581799 18 13019ft 325kts
30-Jul-20 21:18 35.863554 -115.569624 1 13023ft 325kts
30-Jul-20 21:19 35.952181 -115.553334 29 12968ft 325kts
30-Jul-20 21:20 36.002518 -115.467112 70 11836ft 314kts
30-Jul-20 21:21 36.028354 -115.367457 87 10971ft 288kts
30-Jul-20 21:22 36.023841 -115.273609 97 9961ft 288kts
30-Jul-20 21:23 36.016666 -115.173947 96 8453ft 293kts
30-Jul-20 21:23 36.011162 -115.092542 95 7030ft 280kts
30-Jul-20 21:25 36.004531 -114.983059 94 5084ft 267kts
30-Jul-20 21:26 36.020644 -114.911059 11 4961ft 198kts
30-Jul-20 21:26 36.063621 -114.911933 332 4981ft 188kts
30-Jul-20 21:28 36.069045 -114.976331 292 4745ft 187kts
30-Jul-20 21:28 36.071102 -115.026237 277 3730ft 180kts
30-Jul-20 21:29 36.073860 -115.087311 268 2956ft 168kts
30-Jul-20 21:30 36.073522 -115.140324 271 2191ft 104kts
30-Jul-20 21:31 36.074784 -115.150625 306 2191ft 0kts
30-Jul-20 21:32 36.076665 -115.152123 335 2191ft 17kts
30-Jul-20 21:33 36.078760 -115.150992 93 2191ft 14kts
30-Jul-20 21:34 36.079763 -115.147372 55 2191ft 7kts

Navigation Log

Ident Type
Flight plan parsing failed, navigation log unavailable